createdAt,value
2022-11-17T00:02:21.304Z,8.75
2022-11-17T00:04:50.536Z,15.02
2022-11-17T00:07:20.142Z,22.35
2022-11-17T00:09:49.390Z,15.00
2022-11-17T00:12:36.200Z,9.20
2022-11-17T00:15:07.346Z,11.15
2022-11-17T00:17:36.783Z,9.30
2022-11-17T00:20:24.983Z,7.22
2022-11-17T00:22:54.390Z,4.20
2022-11-17T00:25:23.627Z,4.28
2022-11-17T00:27:53.207Z,6.00
2022-11-17T00:30:43.735Z,8.55
2022-11-17T00:33:30.889Z,3.85
2022-11-17T00:36:01.129Z,3.75
2022-11-17T00:38:30.684Z,3.20
2022-11-17T00:40:59.813Z,4.40
2022-11-17T00:43:29.636Z,3.17
2022-11-17T00:46:00.362Z,3.90
2022-11-17T00:48:29.806Z,6.00
2022-11-17T00:50:58.889Z,3.70
2022-11-17T00:53:28.370Z,2.65
2022-11-17T00:55:57.478Z,2.78
2022-11-17T00:58:26.801Z,2.85
2022-11-17T01:00:55.835Z,2.97
2022-11-17T01:03:26.597Z,2.80
2022-11-17T01:05:55.806Z,5.03
2022-11-17T01:08:25.191Z,4.55
2022-11-17T01:10:54.228Z,4.05
2022-11-17T01:13:23.753Z,3.42
2022-11-17T01:15:52.792Z,3.92
2022-11-17T01:18:22.398Z,2.85
2022-11-17T01:20:52.844Z,3.33
2022-11-17T01:23:22.246Z,2.53
2022-11-17T01:25:51.317Z,2.80
2022-11-17T01:28:20.652Z,2.13
2022-11-17T01:30:49.821Z,3.17
2022-11-17T01:33:19.265Z,3.70
2022-11-17T01:35:48.296Z,2.63
2022-11-17T01:38:19.056Z,3.58
2022-11-17T01:40:48.253Z,4.38
2022-11-17T01:43:17.781Z,3.20
2022-11-17T01:45:47.047Z,2.67
2022-11-17T01:48:17.076Z,3.95
2022-11-17T01:50:49.660Z,3.75
2022-11-17T01:56:12.470Z,4.20
2022-11-17T01:58:46.431Z,3.22
2022-11-17T02:01:15.951Z,3.08
2022-11-17T02:03:49.327Z,3.42
2022-11-17T02:06:24.961Z,2.70
2022-11-17T02:11:26.867Z,3.58
2022-11-17T02:13:58.002Z,3.17
2022-11-17T02:16:27.069Z,6.13
2022-11-17T02:18:56.579Z,3.03
2022-11-17T02:22:03.556Z,3.17
2022-11-17T02:27:41.893Z,2.83
2022-11-17T02:30:15.125Z,2.67
2022-11-17T02:32:58.280Z,2.88
2022-11-17T02:35:35.125Z,2.75
2022-11-17T02:38:16.538Z,2.50
2022-11-17T02:40:49.563Z,2.70
2022-11-17T02:43:40.088Z,2.95
2022-11-17T02:46:12.244Z,3.15
2022-11-17T02:48:46.236Z,3.38
2022-11-17T02:51:21.057Z,2.00
2022-11-17T02:53:51.523Z,2.08
2022-11-17T02:56:20.977Z,2.42
2022-11-17T02:58:55.318Z,2.65
2022-11-17T03:01:50.081Z,3.17
2022-11-17T03:04:32.010Z,2.67
2022-11-17T03:07:12.241Z,2.40
2022-11-17T03:09:50.480Z,3.38
2022-11-17T03:12:26.013Z,3.42
2022-11-17T03:15:05.601Z,2.67
2022-11-17T03:17:41.415Z,2.30
2022-11-17T03:20:15.517Z,2.42
2022-11-17T03:22:51.831Z,3.08
2022-11-17T03:25:24.719Z,3.38
2022-11-17T03:27:57.580Z,3.67
2022-11-17T03:35:34.869Z,2.70
2022-11-17T03:38:11.581Z,3.08
2022-11-17T03:40:45.132Z,3.15
2022-11-17T03:43:17.861Z,2.47
2022-11-17T03:45:50.539Z,3.85
2022-11-17T03:48:26.122Z,5.50
2022-11-17T03:51:06.522Z,2.55
2022-11-17T03:53:37.301Z,3.42
2022-11-17T03:56:12.230Z,2.55
2022-11-17T03:58:52.665Z,2.60
2022-11-17T04:01:23.850Z,2.28
2022-11-17T04:03:54.397Z,2.95
2022-11-17T04:06:25.066Z,2.80
2022-11-17T04:08:54.481Z,2.47
2022-11-17T04:11:41.080Z,2.85
2022-11-17T04:14:28.440Z,4.47
2022-11-17T04:16:57.537Z,3.35
2022-11-17T04:19:27.005Z,6.05
2022-11-17T04:21:57.641Z,7.90
2022-11-17T04:24:27.163Z,5.05
2022-11-17T04:27:13.434Z,4.43
2022-11-17T04:29:42.837Z,3.08
2022-11-17T04:32:11.856Z,4.38
2022-11-17T04:34:43.475Z,3.30
2022-11-17T04:37:17.619Z,2.53
2022-11-17T04:39:47.275Z,2.95
2022-11-17T04:42:15.278Z,3.13
2022-11-17T04:44:44.682Z,3.30
2022-11-17T04:47:13.790Z,2.60
2022-11-17T04:49:43.188Z,2.58
2022-11-17T04:52:13.615Z,3.28
2022-11-17T04:54:42.972Z,4.05
2022-11-17T04:57:12.184Z,3.45
2022-11-17T04:59:41.573Z,3.95
2022-11-17T05:02:10.656Z,2.60
2022-11-17T05:04:58.603Z,3.35
2022-11-17T05:07:29.179Z,4.43
2022-11-17T05:09:58.607Z,2.97
2022-11-17T05:12:45.443Z,3.28
2022-11-17T05:15:35.119Z,4.13
2022-11-17T05:18:03.141Z,6.80
2022-11-17T05:20:34.562Z,7.68
2022-11-17T05:23:22.243Z,3.97
2022-11-17T05:25:55.274Z,5.38
2022-11-17T05:28:24.323Z,4.20
2022-11-17T05:30:53.691Z,5.13
2022-11-17T05:33:22.791Z,6.97
2022-11-17T05:35:52.190Z,4.95
2022-11-17T05:38:22.682Z,5.57
2022-11-17T05:40:52.019Z,2.90
2022-11-17T05:43:21.113Z,5.03
2022-11-17T05:45:50.723Z,3.95
2022-11-17T05:48:19.976Z,3.95
2022-11-17T05:50:49.403Z,4.45
2022-11-17T05:53:18.583Z,4.57
2022-11-17T05:55:49.383Z,3.53
2022-11-17T05:58:23.803Z,4.63
2022-11-17T06:00:55.553Z,4.60
2022-11-17T06:03:30.407Z,6.63
2022-11-17T06:05:59.866Z,5.05
2022-11-17T06:08:30.309Z,4.70
2022-11-17T06:11:01.115Z,6.05
2022-11-17T06:13:30.262Z,6.65
2022-11-17T06:16:01.785Z,6.15
2022-11-17T06:18:35.456Z,7.18
2022-11-17T06:21:05.246Z,9.43
2022-11-17T06:23:36.453Z,5.28
2022-11-17T06:26:10.669Z,6.13
2022-11-17T06:28:43.308Z,8.38
2022-11-17T06:31:13.610Z,8.15
2022-11-17T06:33:42.965Z,5.90
2022-11-17T06:36:12.567Z,5.00
2022-11-17T06:38:41.618Z,5.63
2022-11-17T06:41:12.436Z,4.57
2022-11-17T06:43:41.507Z,3.80
2022-11-17T06:46:10.972Z,6.60
2022-11-17T06:48:40.071Z,6.15
2022-11-17T06:51:09.430Z,6.07
2022-11-17T06:53:38.528Z,5.20
2022-11-17T06:56:09.209Z,3.58
2022-11-17T06:58:41.421Z,6.45
2022-11-17T07:01:13.537Z,5.15
2022-11-17T07:03:43.688Z,11.00
2022-11-17T07:06:13.955Z,9.43
2022-11-17T07:08:43.116Z,6.07
2022-11-17T07:11:14.118Z,5.35
2022-11-17T07:13:44.831Z,6.30
2022-11-17T07:16:21.731Z,4.88
2022-11-17T07:18:53.562Z,4.57
2022-11-17T07:21:22.983Z,4.40
2022-11-17T07:23:52.080Z,6.50
2022-11-17T07:26:21.553Z,4.80
2022-11-17T07:28:51.999Z,5.28
2022-11-17T07:31:21.988Z,4.65
2022-11-17T07:33:51.115Z,5.13
2022-11-17T07:36:20.607Z,4.55
2022-11-17T07:38:49.746Z,7.45
2022-11-17T07:41:19.032Z,4.68
2022-11-17T07:43:48.020Z,5.82
2022-11-17T07:46:18.977Z,4.20
2022-11-17T07:48:48.094Z,3.92
2022-11-17T07:51:17.532Z,4.32
2022-11-17T07:53:46.646Z,4.95
2022-11-17T07:56:16.412Z,6.03
2022-11-17T07:58:45.470Z,4.03
2022-11-17T08:01:16.353Z,5.00
2022-11-17T08:03:46.849Z,6.68
2022-11-17T08:06:16.973Z,6.45
2022-11-17T08:08:48.486Z,5.65
2022-11-17T08:11:18.067Z,5.28
2022-11-17T08:13:47.234Z,6.70
2022-11-17T08:16:16.820Z,5.88
2022-11-17T08:18:52.123Z,5.18
2022-11-17T08:21:22.024Z,5.13
2022-11-17T08:23:52.931Z,7.30
2022-11-17T08:26:25.154Z,5.55
2022-11-17T08:28:58.345Z,9.90
2022-11-17T08:31:28.202Z,8.02
2022-11-17T08:33:58.695Z,6.20
2022-11-17T08:36:27.952Z,6.20
2022-11-17T08:38:57.094Z,7.43
2022-11-17T08:41:26.708Z,5.07
2022-11-17T08:43:55.855Z,5.68
2022-11-17T08:46:26.544Z,6.75
2022-11-17T08:48:57.394Z,5.88
2022-11-17T08:51:28.911Z,10.05
2022-11-17T08:54:00.075Z,4.18
2022-11-17T08:56:29.976Z,4.97
2022-11-17T08:58:59.045Z,4.50
2022-11-17T09:01:28.500Z,5.22
2022-11-17T09:03:58.967Z,8.52
2022-11-17T09:06:28.261Z,6.90
2022-11-17T09:08:57.655Z,5.75
2022-11-17T09:11:27.377Z,7.10
2022-11-17T09:13:56.432Z,6.18
2022-11-17T09:16:25.927Z,5.75
2022-11-17T09:18:59.539Z,9.55
2022-11-17T09:21:29.101Z,10.23
2022-11-17T09:23:58.231Z,9.20
2022-11-17T09:26:27.914Z,7.80
2022-11-17T09:28:56.923Z,8.07
2022-11-17T09:31:26.332Z,11.07
2022-11-17T09:33:58.274Z,6.82
2022-11-17T09:36:30.245Z,5.53
2022-11-17T09:38:59.540Z,5.80
2022-11-17T09:41:34.651Z,5.80
2022-11-17T09:44:13.294Z,6.78
2022-11-17T09:46:55.860Z,4.55
2022-11-17T09:49:41.688Z,6.55
2022-11-17T09:54:51.087Z,4.82
2022-11-17T09:57:35.170Z,5.18
2022-11-17T10:00:13.362Z,5.90
2022-11-17T10:02:43.647Z,6.25
2022-11-17T10:05:20.715Z,4.63
2022-11-17T10:07:54.799Z,5.70
2022-11-17T10:10:33.402Z,5.93
2022-11-17T10:13:06.048Z,8.02
2022-11-17T10:15:43.713Z,4.82
2022-11-17T10:18:15.419Z,4.38
2022-11-17T10:20:45.550Z,4.95
2022-11-17T10:23:19.769Z,4.25
2022-11-17T10:25:50.158Z,3.80
2022-11-17T10:28:27.992Z,7.13
2022-11-17T10:31:00.274Z,5.28
2022-11-17T10:33:39.317Z,3.40
2022-11-17T10:36:16.180Z,4.32
2022-11-17T10:38:48.746Z,3.38
2022-11-17T10:41:19.985Z,3.95
2022-11-17T10:43:59.195Z,3.63
2022-11-17T10:46:34.269Z,3.97
2022-11-17T10:49:25.908Z,3.70
2022-11-17T10:52:07.897Z,3.50
2022-11-17T10:54:39.240Z,3.13
2022-11-17T10:57:13.397Z,3.47
2022-11-17T10:59:47.861Z,2.80
2022-11-17T11:02:31.368Z,3.35
2022-11-17T11:05:10.406Z,3.10
2022-11-17T11:07:40.199Z,3.63
2022-11-17T11:10:17.742Z,3.30
2022-11-17T11:13:16.317Z,3.45
2022-11-17T11:16:06.059Z,4.43
2022-11-17T11:18:35.561Z,3.72
2022-11-17T11:21:14.976Z,5.78
2022-11-17T11:23:52.330Z,3.30
2022-11-17T11:26:43.459Z,3.22
2022-11-17T11:29:24.109Z,3.22
2022-11-17T11:32:10.797Z,4.78
2022-11-17T11:34:53.838Z,3.92
2022-11-17T11:37:29.104Z,4.03
2022-11-17T11:40:08.605Z,5.75
2022-11-17T11:42:52.105Z,5.47
2022-11-17T11:45:30.574Z,6.13
2022-11-17T11:48:15.349Z,6.05
2022-11-17T11:50:57.851Z,6.82
2022-11-17T11:53:32.590Z,7.90
2022-11-17T11:56:20.207Z,6.47
2022-11-17T11:58:59.852Z,4.72
2022-11-17T12:01:35.416Z,4.20
2022-11-17T12:04:20.133Z,3.80
2022-11-17T12:06:58.746Z,3.53
2022-11-17T12:09:49.283Z,3.90
2022-11-17T12:12:23.777Z,3.88
2022-11-17T12:15:13.677Z,4.07
2022-11-17T12:18:00.169Z,3.65
2022-11-17T12:20:58.245Z,4.10
2022-11-17T12:23:58.461Z,4.50
2022-11-17T12:26:29.684Z,4.07
2022-11-17T12:29:35.090Z,3.80
2022-11-17T12:32:06.028Z,4.57
2022-11-17T12:34:37.308Z,4.22
2022-11-17T12:37:30.105Z,5.53
2022-11-17T12:40:04.952Z,3.72
2022-11-17T12:42:36.013Z,4.20
2022-11-17T12:45:10.264Z,4.82
2022-11-17T12:47:44.306Z,6.38
2022-11-17T12:50:35.891Z,5.95
2022-11-17T12:53:27.729Z,4.53
2022-11-17T12:56:30.114Z,4.13
2022-11-17T12:59:11.386Z,6.70
2022-11-17T13:01:52.468Z,5.82
2022-11-17T13:04:31.599Z,5.10
2022-11-17T13:07:02.753Z,4.10
2022-11-17T13:09:33.412Z,4.78
2022-11-17T13:12:05.677Z,5.40
2022-11-17T13:14:35.847Z,4.95
2022-11-17T13:17:12.414Z,9.75
2022-11-17T13:19:43.932Z,4.25
2022-11-17T13:22:18.647Z,5.95
2022-11-17T13:24:50.071Z,4.82
2022-11-17T13:27:24.487Z,5.45
2022-11-17T13:29:53.665Z,5.55
2022-11-17T13:32:28.515Z,5.53
2022-11-17T13:35:00.931Z,7.20
2022-11-17T13:37:31.318Z,7.03
2022-11-17T13:40:02.996Z,5.90
2022-11-17T13:42:34.434Z,8.75
2022-11-17T13:45:06.106Z,10.00
2022-11-17T13:47:46.757Z,8.63
2022-11-17T13:50:37.444Z,7.70
2022-11-17T13:53:23.966Z,43.20
2022-11-17T13:58:32.987Z,8.80
2022-11-17T14:01:02.166Z,8.07
2022-11-17T14:03:37.537Z,7.00
2022-11-17T14:06:10.399Z,9.60
2022-11-17T14:08:41.381Z,8.30
2022-11-17T14:11:21.504Z,9.98
2022-11-17T14:13:55.736Z,11.52
2022-11-17T14:16:28.243Z,7.88
2022-11-17T14:19:06.232Z,12.05
2022-11-17T14:21:36.837Z,9.50
2022-11-17T14:24:12.173Z,10.30
2022-11-17T14:26:45.450Z,9.00
2022-11-17T14:29:15.174Z,12.07
2022-11-17T14:31:44.368Z,15.68
2022-11-17T14:34:14.129Z,15.15
2022-11-17T14:36:45.264Z,12.15
2022-11-17T14:39:19.038Z,14.88
2022-11-17T14:41:49.472Z,15.10
2022-11-17T14:44:19.253Z,14.13
2022-11-17T14:46:48.313Z,14.75
2022-11-17T14:49:17.799Z,15.32
2022-11-17T14:51:51.711Z,14.07
2022-11-17T14:54:21.026Z,16.48
2022-11-17T14:56:50.224Z,14.00
2022-11-17T14:59:19.733Z,14.68
2022-11-17T15:01:48.785Z,13.85
2022-11-17T15:04:48.789Z,12.85
2022-11-17T15:07:08.674Z,13.85
2022-11-17T15:09:38.092Z,11.40
2022-11-17T15:12:07.878Z,18.52
2022-11-17T15:14:41.055Z,20.13
2022-11-17T15:17:14.323Z,22.02
2022-11-17T15:19:44.688Z,21.15
2022-11-17T15:22:15.161Z,40.55
2022-11-17T15:24:44.518Z,67.40
2022-11-17T15:27:13.702Z,70.05
2022-11-17T15:29:43.085Z,54.17
2022-11-17T15:32:12.261Z,46.42
2022-11-17T15:34:41.640Z,44.50
2022-11-17T15:37:10.674Z,47.17
2022-11-17T15:39:41.432Z,48.30
2022-11-17T15:42:10.645Z,31.23
2022-11-17T15:44:40.054Z,28.02
2022-11-17T15:47:09.389Z,26.63
2022-11-17T15:49:38.758Z,23.90
2022-11-17T15:52:07.785Z,24.98
2022-11-17T15:54:37.272Z,24.35
2022-11-17T15:57:08.277Z,30.23
2022-11-17T15:59:37.785Z,30.15
2022-11-17T16:02:10.806Z,39.88
2022-11-17T16:04:40.290Z,42.22
2022-11-17T16:07:09.441Z,33.17
2022-11-17T16:09:38.797Z,36.00
2022-11-17T16:12:09.487Z,31.55
2022-11-17T16:14:39.142Z,28.25
2022-11-17T16:17:08.216Z,29.98
2022-11-17T16:19:37.722Z,32.00
2022-11-17T16:22:06.821Z,35.53
2022-11-17T16:24:36.160Z,26.00
2022-11-17T16:27:10.548Z,26.50
2022-11-17T16:29:42.597Z,27.80
2022-11-17T16:32:11.642Z,30.27
2022-11-17T16:34:41.522Z,23.63
2022-11-17T16:37:10.630Z,20.63
2022-11-17T16:39:39.966Z,25.33
2022-11-17T16:42:10.525Z,29.00
2022-11-17T16:44:39.945Z,25.45
2022-11-17T16:47:09.110Z,25.88
2022-11-17T16:49:38.957Z,28.73
2022-11-17T16:52:08.059Z,31.45
2022-11-17T16:54:37.539Z,35.45
2022-11-17T16:57:06.748Z,42.42
2022-11-17T16:59:37.701Z,64.35
2022-11-17T17:02:06.758Z,50.22
2022-11-17T17:04:36.327Z,57.28
2022-11-17T17:07:06.059Z,47.28
2022-11-17T17:09:37.332Z,52.63
2022-11-17T17:12:07.322Z,51.40
2022-11-17T17:14:38.155Z,52.28
2022-11-17T17:17:07.281Z,45.65
2022-11-17T17:19:36.882Z,48.28
2022-11-17T17:22:05.956Z,44.47
2022-11-17T17:24:35.307Z,40.35
2022-11-17T17:27:05.109Z,45.03
2022-11-17T17:29:34.677Z,41.65
2022-11-17T17:32:05.288Z,75.55
2022-11-17T17:34:34.626Z,54.15
2022-11-17T17:37:03.695Z,79.15
2022-11-17T17:39:33.666Z,83.50
2022-11-17T17:42:02.863Z,77.05
2022-11-17T17:44:32.179Z,93.90
2022-11-17T17:47:01.336Z,76.97
2022-11-17T17:49:33.263Z,77.63
2022-11-17T17:52:02.382Z,80.00
2022-11-17T17:54:31.757Z,73.45
2022-11-17T17:57:00.867Z,69.55
2022-11-17T17:59:30.148Z,75.63
2022-11-17T18:01:59.230Z,67.10
2022-11-17T18:04:29.575Z,82.50
2022-11-17T18:07:01.525Z,139.65
2022-11-17T18:09:31.042Z,138.35
2022-11-17T18:12:00.079Z,142.75
2022-11-17T18:14:30.780Z,130.82
2022-11-17T18:16:59.908Z,124.28
2022-11-17T18:19:32.939Z,117.53
2022-11-17T18:22:03.993Z,102.47
2022-11-17T18:24:33.371Z,75.95
2022-11-17T18:27:02.463Z,63.13
2022-11-17T18:29:35.029Z,52.38
2022-11-17T18:32:04.308Z,52.53
2022-11-17T18:34:34.540Z,55.05
2022-11-17T18:37:05.251Z,49.65
2022-11-17T18:39:34.753Z,47.55
2022-11-17T18:42:03.782Z,45.05
2022-11-17T18:44:33.184Z,47.25
2022-11-17T18:47:03.164Z,44.95
2022-11-17T18:49:34.522Z,51.97
2022-11-17T18:52:05.390Z,50.53
2022-11-17T18:54:34.770Z,46.67
2022-11-17T18:57:04.077Z,78.15
2022-11-17T18:59:33.505Z,92.82
2022-11-17T19:02:02.891Z,94.13
2022-11-17T19:04:32.390Z,83.00
2022-11-17T19:07:01.527Z,95.00
2022-11-17T19:09:33.592Z,77.25
2022-11-17T19:12:02.729Z,89.43
2022-11-17T19:14:32.974Z,73.97
2022-11-17T19:17:02.344Z,117.18
2022-11-17T19:19:31.805Z,140.00
2022-11-17T19:22:00.936Z,139.10
2022-11-17T19:24:32.672Z,119.22
2022-11-17T19:27:02.522Z,86.88
2022-11-17T19:29:32.536Z,173.88
2022-11-17T19:32:01.707Z,48.47
2022-11-17T19:34:31.329Z,56.83
2022-11-17T19:37:00.341Z,40.22
2022-11-17T19:39:32.519Z,22.65
2022-11-17T19:42:01.571Z,24.13
2022-11-17T19:44:30.895Z,26.08
2022-11-17T19:47:00.035Z,26.95
2022-11-17T19:49:29.388Z,27.75
2022-11-17T19:51:58.402Z,20.63
2022-11-17T19:54:28.624Z,28.90
2022-11-17T19:56:59.711Z,23.38
2022-11-17T19:59:29.550Z,24.42
2022-11-17T20:01:58.726Z,29.35
2022-11-17T20:04:35.785Z,30.60
2022-11-17T20:07:05.159Z,32.95
2022-11-17T20:09:34.737Z,29.73
2022-11-17T20:12:05.353Z,39.92
2022-11-17T20:14:35.244Z,37.25
2022-11-17T20:17:04.302Z,37.05
2022-11-17T20:19:33.989Z,41.17
2022-11-17T20:22:03.289Z,33.33
2022-11-17T20:24:35.056Z,49.30
2022-11-17T20:27:05.633Z,46.22
2022-11-17T20:29:35.307Z,29.35
2022-11-17T20:32:04.424Z,48.13
2022-11-17T20:34:34.045Z,41.95
2022-11-17T20:37:03.184Z,54.97
2022-11-17T20:39:32.522Z,53.53
2022-11-17T20:42:01.703Z,40.53
2022-11-17T20:44:32.680Z,41.05
2022-11-17T20:47:01.741Z,34.72
2022-11-17T20:49:31.413Z,44.10
2022-11-17T20:52:00.520Z,44.75
2022-11-17T20:54:29.949Z,44.17
2022-11-17T20:56:59.116Z,35.83
2022-11-17T20:59:28.612Z,24.92
2022-11-17T21:01:59.077Z,40.78
2022-11-17T21:04:28.468Z,27.08
2022-11-17T21:06:57.628Z,26.90
2022-11-17T21:09:28.354Z,25.05
2022-11-17T21:11:57.538Z,14.90
2022-11-17T21:14:27.752Z,13.18
2022-11-17T21:17:00.509Z,13.77
2022-11-17T21:19:31.126Z,18.48
2022-11-17T21:22:02.471Z,13.77
2022-11-17T21:24:31.828Z,16.48
2022-11-17T21:27:00.915Z,18.20
2022-11-17T21:29:30.293Z,20.85
2022-11-17T21:32:00.743Z,20.80
2022-11-17T21:34:30.216Z,22.15
2022-11-17T21:36:59.236Z,32.33
2022-11-17T21:39:28.634Z,23.38
2022-11-17T21:41:57.793Z,24.63
2022-11-17T21:44:27.854Z,26.33
2022-11-17T21:46:56.908Z,29.20
2022-11-17T21:49:27.675Z,21.27
2022-11-17T21:51:56.871Z,22.08
2022-11-17T21:54:26.500Z,18.45
2022-11-17T21:56:55.644Z,26.30
2022-11-17T21:59:25.058Z,20.30
2022-11-17T22:01:54.364Z,21.63
2022-11-17T22:04:23.885Z,28.02
2022-11-17T22:06:54.412Z,25.75
2022-11-17T22:09:23.744Z,33.60
2022-11-17T22:11:53.201Z,25.73
2022-11-17T22:14:22.871Z,15.00
2022-11-17T22:16:55.058Z,18.30
2022-11-17T22:19:27.791Z,23.00
2022-11-17T22:21:58.403Z,19.13
2022-11-17T22:24:27.959Z,19.23
2022-11-17T22:26:57.062Z,20.08
2022-11-17T22:29:26.644Z,22.35
2022-11-17T22:31:56.285Z,23.17
2022-11-17T22:34:25.655Z,24.60
2022-11-17T22:36:54.810Z,20.83
2022-11-17T22:39:25.650Z,17.67
2022-11-17T22:41:54.723Z,16.75
2022-11-17T22:44:25.055Z,19.13
2022-11-17T22:46:54.239Z,23.58
2022-11-17T22:49:23.720Z,27.75
2022-11-17T22:52:04.633Z,35.83
2022-11-17T22:54:35.862Z,24.42
2022-11-17T22:57:05.173Z,20.73
2022-11-17T22:59:34.609Z,21.00
2022-11-17T23:02:03.776Z,20.52
2022-11-17T23:04:33.393Z,22.02
2022-11-17T23:07:02.700Z,19.20
2022-11-17T23:09:33.955Z,21.75
2022-11-17T23:12:03.201Z,18.42
2022-11-17T23:14:32.655Z,17.35
2022-11-17T23:17:01.847Z,19.35
2022-11-17T23:19:31.355Z,23.50
2022-11-17T23:22:00.718Z,21.45
2022-11-17T23:24:30.164Z,20.70
2022-11-17T23:27:00.643Z,21.38
2022-11-17T23:29:30.318Z,14.23
2022-11-17T23:31:59.371Z,11.80
2022-11-17T23:34:28.960Z,14.18
2022-11-17T23:37:03.357Z,15.05
2022-11-17T23:39:33.477Z,15.07
2022-11-17T23:42:04.419Z,12.68
2022-11-17T23:44:33.888Z,15.48
2022-11-17T23:47:02.891Z,16.52
2022-11-17T23:49:32.334Z,11.02
2022-11-17T23:52:01.463Z,14.10
2022-11-17T23:54:30.940Z,18.75
2022-11-17T23:57:00.014Z,15.63
2022-11-17T23:59:30.881Z,13.57
